Time;durP1;ratioP1;P1;durP2;ratioP2;P2;SDS_P1;SDS_P2;PMS_P1;PMS_P2;Temp;Humidity;BMP_temperature;BMP_pressure;BME280_temperature;BME280_humidity;BME280_pressure;Samples;Min_cycle;Max_cycle;Signal;HPM_P1;HPM_P2
2022/04/13 00:01:55;;;;;;;0.60;0.60;;;;;;;11.25;97.28;99867.94;5017693;28;20453;-79
2022/04/13 00:04:22;;;;;;;0.40;0.30;;;;;;;11.18;97.90;99887.69;4995456;28;20450;-79
2022/04/13 00:06:48;;;;;;;0.30;0.20;;;;;;;11.17;98.32;99884.16;4994686;28;20476;-80
2022/04/13 00:09:15;;;;;;;0.30;0.20;;;;;;;11.18;97.89;99877.91;4998903;28;20461;-80
2022/04/13 00:11:42;;;;;;;0.30;0.20;;;;;;;11.19;98.30;99890.28;5016686;28;20452;-80
2022/04/13 00:14:08;;;;;;;0.40;0.30;;;;;;;11.18;97.96;99890.34;4998600;28;20831;-80
2022/04/13 00:16:35;;;;;;;0.30;0.20;;;;;;;11.22;97.87;99886.63;4998481;28;20558;-79
2022/04/13 00:19:02;;;;;;;0.30;0.20;;;;;;;11.13;97.88;99890.53;4998460;28;20452;-79
2022/04/13 00:21:29;;;;;;;0.30;0.20;;;;;;;10.89;99.17;99886.09;4998388;28;20522;-80
2022/04/13 00:23:56;;;;;;;0.30;0.20;;;;;;;10.96;100.00;99887.59;5030932;28;20995;-80
2022/04/13 00:26:24;;;;;;;0.40;0.30;;;;;;;10.93;99.73;99877.94;5007181;28;20570;-80
2022/04/13 00:28:50;;;;;;;0.30;0.20;;;;;;;10.93;100.00;99879.75;5006400;28;20488;-80
2022/04/13 00:31:17;;;;;;;0.37;0.30;;;;;;;11.07;100.00;99889.88;4997966;28;20475;-79
2022/04/13 00:33:44;;;;;;;0.30;0.20;;;;;;;11.04;99.63;99880.22;5030071;28;20452;-80
2022/04/13 00:36:10;;;;;;;0.30;0.20;;;;;;;11.03;100.00;99883.81;4996844;28;20496;-80
2022/04/13 00:38:37;;;;;;;0.30;0.20;;;;;;;11.07;100.00;99882.75;4998287;28;20502;-80
2022/04/13 00:41:03;;;;;;;0.30;0.20;;;;;;;11.15;100.00;99887.81;5015250;28;20456;-80
2022/04/13 00:43:30;;;;;;;0.33;0.27;;;;;;;11.24;100.00;99895.47;5000725;28;20456;-80
2022/04/13 00:45:57;;;;;;;0.40;0.30;;;;;;;11.08;100.00;99892.47;5015040;28;20464;-79
2022/04/13 00:48:39;;;;;;;0.30;0.20;;;;;;;11.05;100.00;99894.38;5030825;28;20449;-80
2022/04/13 00:51:07;;;;;;;0.30;0.20;;;;;;;11.00;100.00;99897.22;4986570;28;20473;-80
2022/04/13 00:53:35;;;;;;;0.30;0.20;;;;;;;11.01;100.00;99893.66;5020993;28;20511;-80
2022/04/13 00:56:05;;;;;;;0.40;0.40;;;;;;;10.85;100.00;99871.19;5017415;28;20465;-80
2022/04/13 00:58:33;;;;;;;0.30;0.20;;;;;;;11.05;100.00;99889.94;5010084;28;20456;-79
2022/04/13 01:01:03;;;;;;;0.30;0.20;;;;;;;11.13;100.00;99897.66;4995926;28;20453;-79
2022/04/13 01:03:30;;;;;;;0.30;0.20;;;;;;;11.11;100.00;99894.19;4983478;28;20453;-80
2022/04/13 01:05:57;;;;;;;0.30;0.20;;;;;;;11.17;100.00;99900.13;4999043;28;20473;-80
2022/04/13 01:08:27;;;;;;;0.30;0.20;;;;;;;11.06;100.00;99897.00;5029876;28;20449;-80
2022/04/13 01:10:55;;;;;;;0.30;0.20;;;;;;;10.97;100.00;99895.56;4997636;28;20946;-79
2022/04/13 01:13:22;;;;;;;0.30;0.20;;;;;;;10.92;100.00;99907.25;5008704;28;20461;-80
2022/04/13 01:15:49;;;;;;;0.30;0.20;;;;;;;10.94;100.00;99906.28;4996975;28;20492;-80
2022/04/13 01:18:18;;;;;;;0.30;0.20;;;;;;;11.02;100.00;99908.66;5011113;28;20829;-80
2022/04/13 01:20:56;;;;;;;0.30;0.20;;;;;;;11.01;100.00;99914.91;4996730;28;20448;-80
2022/04/13 01:23:24;;;;;;;0.30;0.30;;;;;;;10.91;100.00;99893.09;4997091;28;20452;-80
2022/04/13 01:25:52;;;;;;;0.30;0.20;;;;;;;10.94;100.00;99911.59;5017609;28;20492;-79
2022/04/13 01:28:19;;;;;;;1.23;1.13;;;;;;;10.83;100.00;99919.13;4996240;28;20476;-80
2022/04/13 01:30:46;;;;;;;0.30;0.20;;;;;;;10.52;100.00;99913.97;5026128;28;20505;-80
2022/04/13 01:33:13;;;;;;;0.30;0.20;;;;;;;10.84;100.00;99919.97;5014691;28;20491;-80
2022/04/13 01:35:40;;;;;;;0.30;0.20;;;;;;;10.70;100.00;99912.50;5017324;28;20882;-80
2022/04/13 01:38:07;;;;;;;0.30;0.20;;;;;;;10.85;100.00;99919.06;5014398;28;20473;-80
2022/04/13 01:40:34;;;;;;;0.53;0.53;;;;;;;10.84;100.00;99922.63;4997121;28;20444;-80
2022/04/13 01:43:00;;;;;;;0.30;0.20;;;;;;;10.82;100.00;99914.69;5000238;28;20515;-80
2022/04/13 01:45:27;;;;;;;0.43;0.43;;;;;;;10.97;100.00;99929.25;4996460;28;20459;-79
2022/04/13 01:47:54;;;;;;;2.53;1.27;;;;;;;10.89;100.00;99918.88;5029253;28;20457;-80
2022/04/13 01:50:24;;;;;;;0.30;0.20;;;;;;;10.91;100.00;99916.16;5013684;28;20468;-77
2022/04/13 01:52:50;;;;;;;0.40;0.30;;;;;;;10.73;100.00;99914.16;5011297;28;20465;-78
2022/04/13 01:55:17;;;;;;;0.30;0.20;;;;;;;10.62;100.00;99919.84;4982588;28;20457;-78
2022/04/13 01:57:45;;;;;;;0.30;0.20;;;;;;;10.71;100.00;99918.69;5004535;28;20998;-78
2022/04/13 02:00:12;;;;;;;0.30;0.20;;;;;;;10.67;100.00;99928.53;5008607;28;20449;-78
2022/04/13 02:02:39;;;;;;;0.50;0.50;;;;;;;10.72;100.00;99933.69;5020382;28;20463;-78
2022/04/13 02:05:06;;;;;;;0.40;0.40;;;;;;;10.71;100.00;99934.63;5016741;28;20456;-78
2022/04/13 02:07:33;;;;;;;0.40;0.30;;;;;;;10.56;100.00;99923.59;4995238;28;20502;-78
2022/04/13 02:09:59;;;;;;;0.30;0.20;;;;;;;10.62;100.00;99919.84;4994800;28;20452;-78
2022/04/13 02:12:26;;;;;;;2.83;2.33;;;;;;;10.73;100.00;99935.44;4995385;28;20514;-78
2022/04/13 02:14:54;;;;;;;0.30;0.20;;;;;;;10.77;100.00;99921.97;4995504;28;20456;-80
2022/04/13 02:17:21;;;;;;;0.30;0.20;;;;;;;10.75;100.00;99936.25;4996438;28;20499;-79
2022/04/13 02:19:48;;;;;;;0.30;0.20;;;;;;;10.76;100.00;99952.16;4993874;28;20813;-79
2022/04/13 02:22:14;;;;;;;0.30;0.20;;;;;;;10.71;100.00;99940.81;4992596;28;20452;-79
2022/04/13 02:25:04;;;;;;;0.30;0.20;;;;;;;10.65;100.00;99941.88;5005936;28;20543;-79
2022/04/13 02:27:31;;;;;;;0.40;0.33;;;;;;;10.68;100.00;99940.91;4996529;28;20465;-79
2022/04/13 02:29:58;;;;;;;0.30;0.20;;;;;;;10.55;100.00;99937.81;4999677;28;20499;-79
2022/04/13 02:32:24;;;;;;;0.57;0.57;;;;;;;10.54;100.00;99941.38;5001055;28;20483;-79
2022/04/13 02:34:51;;;;;;;0.40;0.40;;;;;;;10.54;100.00;99933.41;4988303;28;21011;-79
2022/04/13 02:37:18;;;;;;;0.30;0.20;;;;;;;10.58;100.00;99937.72;5000896;28;20492;-79
2022/04/13 02:39:44;;;;;;;0.30;0.20;;;;;;;10.31;100.00;99942.16;5001152;28;20456;-78
2022/04/13 02:42:17;;;;;;;0.30;0.20;;;;;;;10.58;100.00;99945.69;5002530;28;20507;-79
2022/04/13 02:44:44;;;;;;;0.30;0.20;;;;;;;10.48;100.00;99943.38;5003839;28;20944;-79
2022/04/13 02:47:10;;;;;;;36.53;1.13;;;;;;;10.53;100.00;99952.91;5020354;28;20824;-79
2022/04/13 02:49:37;;;;;;;0.30;0.20;;;;;;;10.52;100.00;99958.28;5024662;28;20514;-78
2022/04/13 02:52:04;;;;;;;0.30;0.20;;;;;;;10.69;100.00;99966.59;4999507;28;21017;-78
2022/04/13 02:54:31;;;;;;;0.30;0.20;;;;;;;10.63;100.00;99958.81;5018273;28;20457;-79
2022/04/13 02:56:58;;;;;;;0.40;0.20;;;;;;;10.79;100.00;99962.66;4999992;28;20964;-79
2022/04/13 02:59:25;;;;;;;0.40;0.30;;;;;;;10.63;100.00;99961.47;5006603;28;20837;-79
2022/04/13 03:01:53;;;;;;;0.30;0.20;;;;;;;10.80;100.00;99964.41;5018799;28;20472;-79
2022/04/13 03:04:26;;;;;;;0.30;0.20;;;;;;;10.83;100.00;99953.69;5021593;28;20444;-79
2022/04/13 03:06:54;;;;;;;0.30;0.20;;;;;;;10.78;100.00;99952.94;5015182;28;20495;-79
2022/04/13 03:09:20;;;;;;;0.30;0.20;;;;;;;10.77;100.00;99963.66;5023630;28;20451;-79
2022/04/13 03:11:47;;;;;;;0.30;0.20;;;;;;;10.71;100.00;99954.09;5020213;28;20890;-79
2022/04/13 03:14:14;;;;;;;0.30;0.20;;;;;;;10.65;100.00;99952.50;5022321;28;20492;-79
2022/04/13 03:16:40;;;;;;;0.30;0.20;;;;;;;10.76;100.00;99948.63;5030460;28;20468;-79
2022/04/13 03:19:07;;;;;;;0.30;0.20;;;;;;;10.77;100.00;99951.22;4989495;28;20468;-79
2022/04/13 03:21:34;;;;;;;0.30;0.20;;;;;;;10.74;100.00;99942.50;4998839;28;20456;-79
2022/04/13 03:24:01;;;;;;;0.40;0.30;;;;;;;10.81;100.00;99952.84;5015058;28;20448;-79
2022/04/13 03:26:28;;;;;;;0.30;0.20;;;;;;;10.75;100.00;99945.09;5000041;28;20989;-79
2022/04/13 03:28:55;;;;;;;0.30;0.20;;;;;;;10.72;100.00;99941.69;5021109;28;20860;-80
2022/04/13 03:31:22;;;;;;;0.30;0.20;;;;;;;10.75;100.00;99942.44;5000970;28;20460;-80
2022/04/13 03:33:49;;;;;;;0.30;0.20;;;;;;;10.75;100.00;99946.88;5001531;28;20479;-80
2022/04/13 03:36:17;;;;;;;0.30;0.20;;;;;;;10.82;100.00;99949.25;5001289;28;20534;-80
2022/04/13 03:38:44;;;;;;;0.30;0.20;;;;;;;10.75;100.00;99958.38;5001727;28;20563;-80
2022/04/13 03:41:10;;;;;;;1.00;0.73;;;;;;;10.57;100.00;99948.41;5000590;28;20995;-80
2022/04/13 03:43:37;;;;;;;21.33;2.67;;;;;;;10.46;100.00;99950.53;5005531;28;20464;-80
2022/04/13 03:46:04;;;;;;;0.70;0.70;;;;;;;10.42;100.00;99956.88;5020458;28;20491;-80
2022/04/13 03:48:33;;;;;;;0.30;0.20;;;;;;;10.22;100.00;99957.53;5001382;28;20512;-80
2022/04/13 03:51:00;;;;;;;0.30;0.20;;;;;;;10.07;100.00;99949.09;5021609;28;20457;-80
2022/04/13 03:53:27;;;;;;;0.30;0.20;;;;;;;10.03;100.00;99946.59;5009228;28;20465;-80
2022/04/13 03:55:54;;;;;;;0.30;0.20;;;;;;;9.98;100.00;99956.47;5018484;28;20477;-80
2022/04/13 03:58:20;;;;;;;0.30;0.20;;;;;;;9.94;100.00;99953.06;5030498;28;20495;-81
2022/04/13 04:00:47;;;;;;;0.30;0.20;;;;;;;9.88;100.00;99952.41;5026076;28;20887;-81
2022/04/13 04:03:14;;;;;;;0.30;0.20;;;;;;;9.89;100.00;99956.78;5006338;28;20452;-81
2022/04/13 04:05:41;;;;;;;0.30;0.20;;;;;;;9.98;100.00;99953.81;5000440;28;20992;-81
2022/04/13 04:08:07;;;;;;;0.30;0.20;;;;;;;9.76;100.00;99962.47;5018029;28;20449;-80
2022/04/13 04:10:34;;;;;;;0.30;0.20;;;;;;;9.68;100.00;99968.91;5018005;28;20816;-81
2022/04/13 04:13:01;;;;;;;0.40;0.40;;;;;;;9.57;100.00;99973.66;5016677;28;20503;-81
2022/04/13 04:15:28;;;;;;;0.40;0.40;;;;;;;9.58;100.00;99962.13;5005645;28;20837;-81
2022/04/13 04:17:55;;;;;;;0.30;0.20;;;;;;;9.42;100.00;99959.06;4999717;28;20496;-81
2022/04/13 04:20:22;;;;;;;0.30;0.20;;;;;;;9.27;100.00;99964.81;5020387;28;20451;-81
2022/04/13 04:22:48;;;;;;;0.30;0.20;;;;;;;9.32;100.00;99965.53;5011296;28;20460;-81
2022/04/13 04:25:15;;;;;;;0.30;0.20;;;;;;;9.15;100.00;99960.72;5016686;28;20503;-81
2022/04/13 04:27:41;;;;;;;0.30;0.20;;;;;;;9.20;100.00;99978.28;5017572;28;21016;-80
2022/04/13 04:30:08;;;;;;;0.60;0.53;;;;;;;9.11;100.00;99967.91;5016994;28;20499;-80
2022/04/13 04:32:35;;;;;;;0.30;0.20;;;;;;;9.15;100.00;99966.03;5003211;28;20460;-80
2022/04/13 04:35:04;;;;;;;1.13;0.70;;;;;;;9.11;100.00;99965.25;5016107;28;20510;-80
2022/04/13 04:37:30;;;;;;;0.40;0.30;;;;;;;9.10;100.00;99966.16;5016033;28;20519;-80
2022/04/13 04:39:57;;;;;;;0.30;0.20;;;;;;;9.12;100.00;99969.66;5016597;28;20965;-80
2022/04/13 04:42:25;;;;;;;0.50;0.40;;;;;;;9.20;100.00;99977.41;5013970;28;20934;-80
2022/04/13 04:44:58;;;;;;;0.30;0.20;;;;;;;9.07;100.00;99979.53;5020434;28;20463;-80
2022/04/13 04:47:26;;;;;;;0.40;0.37;;;;;;;9.11;100.00;99978.50;5017897;28;20524;-80
2022/04/13 04:49:52;;;;;;;0.30;0.20;;;;;;;9.04;100.00;99979.56;4997545;28;20464;-80
2022/04/13 04:52:19;;;;;;;0.40;0.30;;;;;;;8.89;100.00;99978.22;4998304;28;20464;-80
2022/04/13 04:54:46;;;;;;;0.30;0.20;;;;;;;8.92;100.00;99971.13;5015965;28;20502;-80
2022/04/13 04:57:12;;;;;;;0.30;0.20;;;;;;;8.97;100.00;99979.81;5015526;28;20481;-80
2022/04/13 04:59:39;;;;;;;0.30;0.20;;;;;;;8.93;100.00;99973.72;5015079;28;20871;-80
2022/04/13 05:02:06;;;;;;;0.30;0.20;;;;;;;8.87;100.00;99982.69;5016510;28;20449;-80
2022/04/13 05:04:33;;;;;;;0.30;0.20;;;;;;;9.00;100.00;99985.00;5005265;28;20507;-80
2022/04/13 05:06:59;;;;;;;0.40;0.40;;;;;;;8.93;100.00;99978.16;4997351;28;20469;-80
2022/04/13 05:09:28;;;;;;;0.30;0.20;;;;;;;8.92;100.00;99977.28;4999537;28;20448;-80
2022/04/13 05:12:00;;;;;;;12.57;2.83;;;;;;;8.87;100.00;99966.78;5000876;28;20829;-79
2022/04/13 05:14:29;;;;;;;0.30;0.20;;;;;;;8.96;100.00;99992.19;5004578;28;20988;-80
2022/04/13 05:16:55;;;;;;;0.30;0.20;;;;;;;9.06;100.00;99990.16;5017414;28;20879;-80
2022/04/13 05:19:22;;;;;;;0.40;0.40;;;;;;;9.12;100.00;99998.81;5021857;28;20488;-80
2022/04/13 05:21:48;;;;;;;0.30;0.20;;;;;;;9.10;100.00;100005.94;5018570;28;20452;-80
2022/04/13 05:24:15;;;;;;;0.30;0.20;;;;;;;9.17;100.00;100014.59;4995960;28;20887;-80
2022/04/13 05:26:42;;;;;;;0.30;0.20;;;;;;;9.30;100.00;100008.03;5014984;28;20511;-80
2022/04/13 05:29:08;;;;;;;0.30;0.20;;;;;;;9.29;100.00;100014.25;5030475;28;20869;-80
2022/04/13 05:31:35;;;;;;;0.40;0.30;;;;;;;9.40;100.00;100019.25;5015451;28;20452;-80
2022/04/13 05:34:02;;;;;;;0.30;0.20;;;;;;;9.42;100.00;100025.38;4997249;28;20457;-80
2022/04/13 05:36:28;;;;;;;0.30;0.20;;;;;;;9.48;100.00;100028.75;5022609;28;21030;-80
2022/04/13 05:38:55;;;;;;;0.30;0.20;;;;;;;9.53;100.00;100030.41;5008496;28;20488;-80
2022/04/13 05:41:21;;;;;;;0.30;0.20;;;;;;;9.65;100.00;100030.91;5016093;28;20946;-80
2022/04/13 05:43:48;;;;;;;0.30;0.20;;;;;;;9.66;100.00;100031.78;5016080;28;20808;-80
2022/04/13 05:46:15;;;;;;;0.30;0.20;;;;;;;9.72;100.00;100036.91;5022370;28;20477;-79
2022/04/13 05:48:41;;;;;;;0.30;0.20;;;;;;;9.79;100.00;100038.47;5009619;28;20539;-80
2022/04/13 05:51:09;;;;;;;0.30;0.20;;;;;;;9.96;100.00;100045.94;5016136;28;20461;-80
2022/04/13 05:53:36;;;;;;;0.30;0.20;;;;;;;9.84;100.00;100046.28;4997489;28;20514;-80
2022/04/13 05:56:03;;;;;;;1.50;1.37;;;;;;;10.15;100.00;100051.56;4998603;28;20468;-80
2022/04/13 05:58:30;;;;;;;0.30;0.20;;;;;;;10.23;100.00;100061.06;5017669;28;20510;-80
2022/04/13 06:00:57;;;;;;;0.30;0.20;;;;;;;10.44;100.00;100061.31;5002571;28;20461;-80
2022/04/13 06:03:24;;;;;;;0.30;0.20;;;;;;;10.48;100.00;100054.97;5014909;28;20441;-80
2022/04/13 06:06:07;;;;;;;0.30;0.20;;;;;;;10.61;100.00;100051.00;5017248;28;20992;-79
2022/04/13 06:08:34;;;;;;;0.30;0.20;;;;;;;10.72;100.00;100059.50;4995027;28;20460;-79
2022/04/13 06:11:01;;;;;;;0.30;0.20;;;;;;;10.95;100.00;100064.91;5023960;28;20457;-80
2022/04/13 06:13:27;;;;;;;0.30;0.20;;;;;;;10.92;100.00;100062.38;4986561;28;20445;-80
2022/04/13 06:15:55;;;;;;;0.30;0.20;;;;;;;11.24;100.00;100068.41;5016715;28;20468;-79
2022/04/13 06:18:22;;;;;;;0.40;0.40;;;;;;;11.39;100.00;100067.84;5021909;28;20562;-79
2022/04/13 06:20:48;;;;;;;0.30;0.20;;;;;;;11.48;100.00;100067.50;5025745;28;20514;-80
2022/04/13 06:23:18;;;;;;;0.73;0.70;;;;;;;11.57;100.00;100075.16;5021733;28;20452;-80
2022/04/13 06:25:45;;;;;;;0.93;0.93;;;;;;;11.51;100.00;100075.41;5027330;28;20543;-80
2022/04/13 06:28:11;;;;;;;0.30;0.20;;;;;;;11.70;100.00;100074.72;5008184;28;20508;-80
2022/04/13 06:30:38;;;;;;;0.30;0.20;;;;;;;11.95;100.00;100075.59;5018028;28;20457;-79
2022/04/13 06:33:05;;;;;;;3.33;1.17;;;;;;;11.78;99.97;100084.16;4986712;28;20456;-79
2022/04/13 06:35:31;;;;;;;0.30;0.20;;;;;;;12.03;100.00;100093.94;5007054;28;20476;-80
2022/04/13 06:37:58;;;;;;;0.30;0.20;;;;;;;12.05;100.00;100084.94;5026369;28;20487;-79
2022/04/13 06:40:24;;;;;;;0.37;0.30;;;;;;;12.15;98.89;100067.69;5006362;28;20999;-79
2022/04/13 06:42:51;;;;;;;0.50;0.50;;;;;;;12.40;99.24;100086.25;5023545;28;20461;-79
2022/04/13 06:45:18;;;;;;;0.70;0.70;;;;;;;12.39;98.30;100078.34;5017131;28;20503;-79
2022/04/13 06:47:44;;;;;;;0.30;0.20;;;;;;;12.53;98.99;100081.31;5012220;28;20544;-79
2022/04/13 06:50:11;;;;;;;0.30;0.20;;;;;;;12.73;99.22;100094.69;4993500;28;20579;-80
2022/04/13 06:52:39;;;;;;;0.30;0.20;;;;;;;12.98;98.42;100099.03;5017737;28;20945;-79
2022/04/13 06:55:09;;;;;;;0.30;0.20;;;;;;;13.09;97.98;100090.59;5016346;28;21019;-79
2022/04/13 06:57:40;;;;;;;0.40;0.30;;;;;;;13.36;96.76;100096.59;4999921;28;20537;-79
2022/04/13 07:00:11;;;;;;;0.40;0.30;;;;;;;13.26;96.63;100094.31;5000280;28;20445;-79
2022/04/13 07:02:40;;;;;;;0.30;0.20;;;;;;;13.52;95.91;100079.84;5021467;28;20444;-78
2022/04/13 07:05:28;;;;;;;0.30;0.20;;;;;;;13.58;95.67;100074.25;5026419;28;20444;-78
2022/04/13 07:07:55;;;;;;;0.30;0.20;;;;;;;13.57;95.29;100066.28;5004645;28;20453;-78
2022/04/13 07:10:22;;;;;;;0.50;0.50;;;;;;;13.70;96.52;100064.78;5019023;28;20513;-79
2022/04/13 07:12:49;;;;;;;0.30;0.20;;;;;;;13.60;96.31;100079.50;5017244;28;20456;-79
2022/04/13 07:15:19;;;;;;;0.40;0.30;;;;;;;13.70;95.74;100064.78;5015850;28;20828;-79
2022/04/13 07:17:46;;;;;;;0.87;0.87;;;;;;;13.58;93.15;100071.56;5018721;28;20796;-79
2022/04/13 07:20:14;;;;;;;0.30;0.20;;;;;;;13.54;93.31;100061.94;5011552;28;20518;-79
2022/04/13 07:22:52;;;;;;;0.30;0.20;;;;;;;13.66;94.30;100068.53;5018542;28;20452;-79
2022/04/13 07:25:20;;;;;;;0.97;0.97;;;;;;;13.55;93.79;100058.31;5016514;28;20506;-79
2022/04/13 07:27:47;;;;;;;0.80;0.80;;;;;;;13.56;93.71;100056.53;5016583;28;20441;-79
2022/04/13 07:30:15;;;;;;;0.40;0.30;;;;;;;13.50;94.35;100078.16;5018390;28;20456;-79
2022/04/13 07:32:46;;;;;;;0.40;0.30;;;;;;;13.51;94.54;100106.59;5002513;28;20954;-79
2022/04/13 07:35:16;;;;;;;0.83;0.83;;;;;;;13.67;93.77;100115.69;5017709;28;20808;-79
2022/04/13 07:37:43;;;;;;;0.30;0.20;;;;;;;13.42;94.40;100094.50;5000257;28;20922;-79
2022/04/13 07:40:11;;;;;;;0.40;0.30;;;;;;;13.51;92.33;100135.97;5001844;28;20457;-79
2022/04/13 07:42:38;;;;;;;0.50;0.50;;;;;;;13.79;92.46;100151.69;4998142;28;20460;-79
2022/04/13 07:45:07;;;;;;;0.50;0.50;;;;;;;13.92;92.73;100142.19;5000057;28;20464;-79
2022/04/13 07:47:33;;;;;;;0.30;0.20;;;;;;;14.13;92.43;100145.72;5018106;28;20835;-79
2022/04/13 07:50:01;;;;;;;0.30;0.20;;;;;;;14.35;91.79;100149.09;5021538;28;20951;-79
2022/04/13 07:52:31;;;;;;;0.40;0.37;;;;;;;14.33;90.29;100142.97;5018038;28;20452;-78
2022/04/13 07:54:58;;;;;;;0.30;0.20;;;;;;;14.47;89.52;100145.03;5018279;28;20500;-78
2022/04/13 07:57:25;;;;;;;0.30;0.20;;;;;;;14.57;90.44;100151.69;5018706;28;21032;-78
2022/04/13 07:59:51;;;;;;;6.23;1.23;;;;;;;14.54;91.34;100154.53;5017318;28;20483;-78
2022/04/13 08:02:20;;;;;;;0.30;0.20;;;;;;;14.50;91.67;100160.94;5023417;28;20457;-78
2022/04/13 08:04:47;;;;;;;0.40;0.30;;;;;;;14.81;91.32;100163.91;5004084;28;20459;-77
2022/04/13 08:07:14;;;;;;;2.77;1.13;;;;;;;14.85;90.90;100169.97;5005058;28;20578;-78
2022/04/13 08:09:42;;;;;;;0.43;0.43;;;;;;;15.08;89.47;100171.56;5025293;28;20502;-77
2022/04/13 08:12:09;;;;;;;0.30;0.20;;;;;;;15.28;88.97;100178.59;5027313;28;20460;-78
2022/04/13 08:14:35;;;;;;;0.30;0.20;;;;;;;15.26;86.83;100173.31;5012049;28;20509;-77
2022/04/13 08:17:04;;;;;;;0.30;0.20;;;;;;;15.27;84.98;100179.53;5030521;28;20468;-78
2022/04/13 08:19:31;;;;;;;0.43;0.43;;;;;;;15.28;84.40;100189.28;5027759;28;20539;-78
2022/04/13 08:21:58;;;;;;;0.30;0.30;;;;;;;15.65;84.70;100189.22;5012222;28;20462;-78
2022/04/13 08:24:25;;;;;;;0.30;0.20;;;;;;;15.80;84.41;100179.53;5003149;28;20530;-78
2022/04/13 08:26:51;;;;;;;0.30;0.20;;;;;;;15.62;82.72;100165.28;5020098;28;21009;-78
2022/04/13 08:29:18;;;;;;;5.70;1.27;;;;;;;16.36;81.71;100181.00;5003155;28;20448;-78
2022/04/13 08:31:44;;;;;;;0.60;0.60;;;;;;;16.25;81.52;100172.66;5006555;28;20506;-78
2022/04/13 08:34:11;;;;;;;0.30;0.20;;;;;;;16.28;81.37;100181.41;4985161;28;20943;-78
2022/04/13 08:36:38;;;;;;;0.40;0.30;;;;;;;15.92;81.15;100184.25;4996507;28;20847;-78
2022/04/13 08:39:08;;;;;;;0.40;0.40;;;;;;;16.40;80.27;100179.88;5016019;28;20484;-78
2022/04/13 08:41:49;;;;;;;0.40;0.37;;;;;;;16.38;79.35;100178.25;5005719;28;20460;-78
2022/04/13 08:44:39;;;;;;;0.30;0.20;;;;;;;16.40;78.94;100184.38;5018347;28;20932;-78
2022/04/13 08:47:11;;;;;;;0.30;0.30;;;;;;;16.49;79.95;100184.75;5031481;28;20895;-78
2022/04/13 08:49:40;;;;;;;0.90;0.70;;;;;;;16.56;77.49;100182.59;5016554;28;20441;-78
2022/04/13 08:52:08;;;;;;;0.40;0.30;;;;;;;16.63;77.32;100167.03;5032414;28;20857;-78
2022/04/13 08:55:03;;;;;;;0.37;0.20;;;;;;;16.88;78.71;100170.97;4998335;28;20503;-78
2022/04/13 08:57:34;;;;;;;2.73;0.80;;;;;;;17.08;75.53;100163.59;5015934;28;20461;-78
2022/04/13 09:00:10;;;;;;;0.40;0.40;;;;;;;17.00;75.94;100174.78;5016284;28;20496;-77
2022/04/13 09:02:55;;;;;;;0.40;0.30;;;;;;;17.35;73.75;100175.44;5005005;28;21011;-78
2022/04/13 09:05:28;;;;;;;0.40;0.40;;;;;;;17.71;73.35;100182.31;5017064;28;20475;-78
2022/04/13 09:08:30;;;;;;;0.50;0.50;;;;;;;17.49;73.00;100180.00;5031885;28;20448;-79
2022/04/13 09:10:57;;;;;;;0.50;0.40;;;;;;;17.46;74.43;100178.38;5031100;28;20869;-78
2022/04/13 09:13:25;;;;;;;0.40;0.40;;;;;;;17.59;74.45;100172.25;5016301;28;20453;-78
2022/04/13 09:15:53;;;;;;;0.40;0.20;;;;;;;18.18;72.70;100165.97;4998203;28;20472;-78
2022/04/13 09:18:19;;;;;;;0.40;0.30;;;;;;;17.79;72.14;100174.66;4996990;28;20452;-78
2022/04/13 09:20:46;;;;;;;0.40;0.20;;;;;;;18.13;72.07;100167.22;5014608;28;20469;-78
2022/04/13 09:23:15;;;;;;;1.43;1.43;;;;;;;17.98;72.18;100180.66;4997319;28;20947;-78
2022/04/13 09:25:43;;;;;;;1.80;1.70;;;;;;;18.28;72.50;100175.22;5010295;28;20528;-77
2022/04/13 09:28:09;;;;;;;0.43;0.30;;;;;;;18.28;72.55;100166.28;4994385;28;20452;-78
2022/04/13 09:30:36;;;;;;;0.40;0.30;;;;;;;18.47;71.91;100163.28;5016912;28;20456;-78
2022/04/13 09:33:03;;;;;;;0.73;0.73;;;;;;;18.35;71.23;100173.84;5000447;28;20988;-78
2022/04/13 09:35:32;;;;;;;0.50;0.50;;;;;;;18.68;69.95;100161.97;5013688;28;20449;-78
2022/04/13 09:38:07;;;;;;;1.83;0.87;;;;;;;18.80;70.09;100163.00;4997817;28;20472;-78
2022/04/13 09:40:42;;;;;;;8.10;2.00;;;;;;;18.65;69.01;100170.25;5026699;28;20567;-78
2022/04/13 09:43:20;;;;;;;0.40;0.20;;;;;;;18.67;69.55;100170.16;4997658;28;20456;-78
2022/04/13 09:45:51;;;;;;;0.87;0.87;;;;;;;18.55;67.28;100166.38;4999313;28;20476;-78
2022/04/13 09:48:20;;;;;;;1.03;1.03;;;;;;;18.49;69.55;100155.97;4996537;28;20451;-78
2022/04/13 09:50:51;;;;;;;0.40;0.30;;;;;;;18.81;70.74;100160.22;5012843;28;20465;-78
2022/04/13 09:53:20;;;;;;;0.40;0.20;;;;;;;18.83;70.13;100152.03;4994416;28;20872;-78
2022/04/13 09:56:01;;;;;;;0.40;0.20;;;;;;;18.89;70.41;100157.88;5003556;28;20468;-78
2022/04/13 09:58:33;;;;;;;0.40;0.20;;;;;;;19.34;68.54;100155.81;4999927;28;20447;-78
2022/04/13 10:01:06;;;;;;;0.57;0.57;;;;;;;19.53;65.93;100163.53;5013315;28;20444;-78
2022/04/13 10:03:32;;;;;;;0.40;0.20;;;;;;;19.56;66.49;100163.34;4989726;28;20471;-78
2022/04/13 10:05:59;;;;;;;0.97;0.43;;;;;;;19.69;65.83;100155.28;5018806;28;20476;-78
2022/04/13 10:08:27;;;;;;;0.40;0.20;;;;;;;19.91;65.10;100165.47;5015385;28;20452;-78
2022/04/13 10:11:00;;;;;;;0.40;0.20;;;;;;;20.22;65.04;100153.38;5005556;28;20461;-78
2022/04/13 10:13:33;;;;;;;0.60;0.50;;;;;;;20.11;64.55;100155.00;4996547;28;20448;-78
2022/04/13 10:16:03;;;;;;;0.60;0.60;;;;;;;19.98;66.85;100155.97;5014215;28;20472;-78
2022/04/13 10:18:59;;;;;;;0.50;0.40;;;;;;;20.09;65.66;100151.53;4996138;28;20852;-78
2022/04/13 10:21:45;;;;;;;0.60;0.60;;;;;;;20.18;66.88;100139.25;4995837;28;20453;-78
2022/04/13 10:24:21;;;;;;;0.77;0.77;;;;;;;20.09;67.56;100142.59;5005663;28;20452;-78
2022/04/13 10:27:07;;;;;;;4.40;1.20;;;;;;;20.15;67.84;100131.38;5008511;28;20481;-78
2022/04/13 10:29:41;;;;;;;0.40;0.30;;;;;;;20.65;65.52;100129.59;5013794;28;20479;-78
2022/04/13 10:32:11;;;;;;;0.40;0.30;;;;;;;20.65;65.90;100129.59;4996111;28;20964;-78
2022/04/13 10:34:49;;;;;;;0.40;0.30;;;;;;;20.94;65.43;100122.91;4993327;28;20876;-78
2022/04/13 10:37:19;;;;;;;0.60;0.60;;;;;;;20.94;65.35;100125.59;5019085;28;20522;-78
2022/04/13 10:39:47;;;;;;;0.47;0.33;;;;;;;20.98;63.62;100127.13;5007108;28;20495;-78
2022/04/13 10:42:18;;;;;;;0.40;0.20;;;;;;;21.07;61.59;100122.00;4990228;28;20890;-78
2022/04/13 10:45:07;;;;;;;0.40;0.30;;;;;;;20.82;61.14;100128.34;5014116;28;20821;-78
2022/04/13 10:47:42;;;;;;;0.63;0.60;;;;;;;21.07;60.26;100125.56;4997062;28;20432;-78
2022/04/13 10:50:13;;;;;;;0.53;0.47;;;;;;;21.43;59.76;100130.06;5014188;28;20510;-78
2022/04/13 10:52:47;;;;;;;0.40;0.30;;;;;;;21.03;57.04;100129.47;5020100;28;20453;-78
2022/04/13 10:55:14;;;;;;;0.40;0.30;;;;;;;21.20;56.97;100128.19;4999614;28;20485;-78
2022/04/13 10:57:55;;;;;;;0.50;0.50;;;;;;;21.48;56.85;100135.97;5010587;28;20948;-79
2022/04/13 11:00:24;;;;;;;3.47;1.83;;;;;;;21.80;56.61;100133.53;5017544;28;20484;-78
2022/04/13 11:02:56;;;;;;;0.40;0.30;;;;;;;21.86;53.39;100135.75;5006083;28;20511;-78
2022/04/13 11:05:27;;;;;;;0.50;0.30;;;;;;;21.97;54.04;100137.63;5002491;28;20857;-78
2022/04/13 11:08:10;;;;;;;0.40;0.20;;;;;;;22.12;55.04;100128.31;5000849;28;20502;-78
2022/04/13 11:10:38;;;;;;;1.23;1.23;;;;;;;22.27;54.42;100130.78;5013285;28;20408;-78
2022/04/13 11:13:08;;;;;;;0.50;0.40;;;;;;;21.87;54.26;100129.34;5002300;28;20519;-78
2022/04/13 11:15:37;;;;;;;0.73;0.73;;;;;;;21.70;54.48;100126.22;5019244;28;20514;-78
2022/04/13 11:18:08;;;;;;;0.40;0.30;;;;;;;21.54;54.33;100135.53;5018073;28;20459;-78
2022/04/13 11:20:35;;;;;;;0.40;0.20;;;;;;;21.51;54.11;100124.06;5009317;28;20488;-78
2022/04/13 11:23:13;;;;;;;0.40;0.20;;;;;;;21.58;54.64;100137.00;4997258;28;20819;-78
2022/04/13 11:25:45;;;;;;;0.40;0.30;;;;;;;21.57;54.11;100134.44;5021018;28;20500;-78
2022/04/13 11:28:23;;;;;;;0.40;0.20;;;;;;;21.53;57.56;100128.41;5016678;28;20464;-78
2022/04/13 11:31:07;;;;;;;0.40;0.30;;;;;;;21.64;61.65;100132.09;5012900;28;20483;-78
2022/04/13 11:33:52;;;;;;;0.40;0.30;;;;;;;21.86;56.95;100127.63;5006697;28;20442;-78
2022/04/13 11:36:20;;;;;;;0.40;0.30;;;;;;;21.82;56.08;100120.72;5015779;28;20502;-78